Aosta, Italy

09:11 AM CET del 23 Marzo 2017 (GMT +0100)
Avenue du Prariond | | Change Station

Alt. 6026 ft 45.45 °N, 6.98 °E | Updated 31 seconds ago

Neve
Neve
40.8 °F
Sembra 38 °F
N
4.3
Vento Variabile Vento da SE
Gusts 8.7 mph

Oggi
Massima -- | Minima -- °F
--% Possibilità di precip.
Ieri
Massima -- | Minima -- °F
Precip. -- in
Pressione 29.98 in
Visibilità 1.5 miglia
Nuvole Molto nuvoloso 400 ft
Molto nuvoloso 3500 ft
Raffreddamento del vento 38 °F
Punto di rugiada 29 °F
Umidità 62%
Piovosità Non disponibile.
Spessore del manto nevoso Non disponibile.
6:28 AM 6:47 PM
Luna calante, 25% visible
METAR LIMF 230750Z 07009KT 2400 BR BKN004 BKN035 10/09 Q1015
Pressione 29.98 in
Visibilità 1.5 miglia
Nuvole Molto nuvoloso 400 ft
Molto nuvoloso 3500 ft
Raffreddamento del vento 38 °F
Punto di rugiada 29 °F
Umidità 62%
Piovosità Non disponibile.
Spessore del manto nevoso Non disponibile.
6:28 AM 6:47 PM
Luna calante, 25% visible
METAR LIMF 230750Z 07009KT 2400 BR BKN004 BKN035 10/09 Q1015

Get Severe Weather Alerts

Thanks for signing up!

Be on the lookout for a verification email in your inbox.

You'll start receiving the daily forecast at 8 AM.

×

10-Day Weather Forecast

Heavy Snow conditions possible.
×

Almanac

Astronomia

Mar. 23, 2017 Alba Tramonto
Ora attuale
Crepuscolo civile
Crepuscolo nautico
Crepuscolo astronomico
Luna
Estensione della luce visibile
Lunghezza del giorno
Tomorrow will be .
, % of the Moon is Illuminated

Gli estremi di oggi

Massime Regione Minime Regione

Community

WunderPhotos

Upload Photos

1,962,540 foto caricate!

WunderBlog® & News

Nearby

Qualità dell'aria

  Qualità dell'aria Indice AQ Inquinante
Not available.

Profondità neve

Stazione Profondità Altitudine

Attività sismica

Città  Distanza Mag. Data & Ora
Minimo Magnitudo Mostrato è 2.5.

Attività sismica

Città  Distanza Mag. Data & Ora
Minimo Magnitudo Mostrato è 2.5.

Temperature delle acque costiere

Località Temperatura

Stations

Stazioni meteo nelle vicinanze

Ubicazione della stazione Temp. Raffreddamento del vento Punto di rugiada Umidità Vento Precip. Alt. Aggiornato Tipo